Time;durP1;ratioP1;P1;durP2;ratioP2;P2;SDS_P1;SDS_P2;PMS_P1;PMS_P2;Temp;Humidity;BMP_temperature;BMP_pressure;BME280_temperature;BME280_humidity;BME280_pressure;Samples;Min_cycle;Max_cycle;Signal;HPM_P1;HPM_P2
2024/02/11 00:00:16;;;;;;;13.55;5.55;;;11.00;67.40;;;;;;4620220;30;20043;-84
2024/02/11 00:02:42;;;;;;;11.68;5.78;;;11.00;67.50;;;;;;4619211;30;20453;-86
2024/02/11 00:05:09;;;;;;;10.88;6.47;;;11.00;67.40;;;;;;4620193;30;20087;-85
2024/02/11 00:07:42;;;;;;;11.52;5.07;;;11.00;67.40;;;;;;4619496;30;20126;-83
2024/02/11 00:10:09;;;;;;;10.27;6.28;;;11.00;67.40;;;;;;4612895;30;20106;-84
2024/02/11 00:12:38;;;;;;;12.85;4.78;;;11.00;67.50;;;;;;4618687;30;20404;-85
2024/02/11 00:15:05;;;;;;;8.95;4.78;;;10.90;67.30;;;;;;4608830;31;20547;-84
2024/02/11 00:17:32;;;;;;;10.80;5.03;;;11.00;68.00;;;;;;4622733;30;20039;-85
2024/02/11 00:19:59;;;;;;;7.97;5.32;;;10.90;67.30;;;;;;4622140;30;20115;-84
2024/02/11 00:22:25;;;;;;;9.00;4.93;;;10.90;67.30;;;;;;4623931;30;20552;-85
2024/02/11 00:24:57;;;;;;;11.57;5.13;;;11.00;67.50;;;;;;4631159;30;20291;-85
2024/02/11 00:27:23;;;;;;;10.30;5.25;;;10.90;67.40;;;;;;4621760;30;20580;-84
2024/02/11 00:29:52;;;;;;;11.40;4.53;;;10.90;67.40;;;;;;4612147;30;20118;-85
2024/02/11 00:32:19;;;;;;;12.57;4.43;;;11.00;67.60;;;;;;4617545;30;20063;-85
2024/02/11 00:34:58;;;;;;;9.50;5.07;;;10.90;67.40;;;;;;4624181;30;20054;-85
2024/02/11 00:37:24;;;;;;;9.57;5.05;;;11.00;67.50;;;;;;4638849;30;20043;-86
2024/02/11 00:39:53;;;;;;;8.73;5.45;;;11.00;67.50;;;;;;4622974;30;20047;-85
2024/02/11 00:42:20;;;;;;;11.48;4.97;;;11.00;67.50;;;;;;4616745;31;20063;-86
2024/02/11 00:44:45;;;;;;;12.23;5.57;;;11.00;67.50;;;;;;4623113;30;20043;-85
2024/02/11 00:47:15;;;;;;;12.55;5.28;;;11.00;67.50;;;;;;4624380;30;20091;-84
2024/02/11 00:49:41;;;;;;;11.05;5.70;;;11.00;67.50;;;;;;4638492;30;20464;-85
2024/02/11 00:52:06;;;;;;;11.13;4.88;;;11.00;67.50;;;;;;4645190;30;20312;-84
2024/02/11 00:54:35;;;;;;;9.80;5.20;;;11.00;67.50;;;;;;4639790;30;20073;-84
2024/02/11 00:57:01;;;;;;;8.13;4.50;;;11.00;67.50;;;;;;4638532;30;20046;-84
2024/02/11 00:59:27;;;;;;;13.30;5.07;;;11.00;67.40;;;;;;4632953;30;20413;-83
2024/02/11 01:01:53;;;;;;;11.65;4.80;;;10.90;67.30;;;;;;4616640;30;20094;-84
2024/02/11 01:04:20;;;;;;;10.70;5.38;;;10.90;67.30;;;;;;4640254;30;20537;-83
2024/02/11 01:06:49;;;;;;;8.15;5.55;;;11.00;67.40;;;;;;4624111;30;20758;-84
2024/02/11 01:09:14;;;;;;;9.60;5.28;;;11.00;67.40;;;;;;4622380;30;20039;-84
2024/02/11 01:11:40;;;;;;;10.63;4.90;;;11.00;67.40;;;;;;4636342;30;20454;-84
2024/02/11 01:14:09;;;;;;;8.50;4.75;;;11.00;67.40;;;;;;4618406;30;20114;-85
2024/02/11 01:16:35;;;;;;;9.18;4.95;;;11.00;67.40;;;;;;4617125;30;20784;-84
2024/02/11 01:19:03;;;;;;;13.45;5.22;;;11.00;67.40;;;;;;4638888;30;20049;-85
2024/02/11 01:21:29;;;;;;;12.20;4.88;;;11.00;67.40;;;;;;4639786;30;20356;-84
2024/02/11 01:23:55;;;;;;;9.02;4.90;;;11.00;67.30;;;;;;4638553;30;20116;-83
2024/02/11 01:26:24;;;;;;;13.32;5.50;;;11.10;67.50;;;;;;4637633;30;20059;-85
2024/02/11 01:28:50;;;;;;;10.73;5.00;;;11.00;67.30;;;;;;4639580;30;20042;-83
2024/02/11 01:31:16;;;;;;;11.77;5.30;;;11.10;67.50;;;;;;4636581;30;20055;-84
2024/02/11 01:33:43;;;;;;;10.50;5.43;;;11.10;67.40;;;;;;4632876;30;20086;-83
2024/02/11 01:36:11;;;;;;;9.27;4.35;;;11.00;67.30;;;;;;4637965;30;20047;-82
2024/02/11 01:38:38;;;;;;;9.45;4.45;;;11.10;67.40;;;;;;4625426;30;20031;-82
2024/02/11 01:41:04;;;;;;;9.88;4.88;;;11.10;67.40;;;;;;4636944;30;20110;-81
2024/02/11 01:43:30;;;;;;;11.60;5.57;;;11.10;67.40;;;;;;4637851;30;20124;-82
2024/02/11 01:45:57;;;;;;;11.40;5.25;;;11.00;67.20;;;;;;4638897;30;20042;-81
2024/02/11 01:48:23;;;;;;;10.52;5.10;;;11.10;67.40;;;;;;4619478;30;20089;-78
2024/02/11 01:50:52;;;;;;;11.25;4.85;;;11.10;67.40;;;;;;4638744;30;20046;-79
2024/02/11 01:53:20;;;;;;;10.35;4.55;;;11.10;67.40;;;;;;4623958;30;20287;-80
2024/02/11 01:55:46;;;;;;;9.02;5.93;;;11.10;67.50;;;;;;4640102;30;20070;-83
2024/02/11 01:58:16;;;;;;;10.65;4.80;;;11.10;67.40;;;;;;4627685;30;20086;-83
2024/02/11 02:00:43;;;;;;;12.32;5.25;;;11.10;67.40;;;;;;4626698;30;20027;-83
2024/02/11 02:03:11;;;;;;;9.20;4.43;;;11.00;67.30;;;;;;4624230;30;20043;-83
2024/02/11 02:05:37;;;;;;;9.77;4.60;;;11.00;67.30;;;;;;4639509;30;20063;-84
2024/02/11 02:08:04;;;;;;;9.15;4.65;;;11.00;67.30;;;;;;4639228;30;20357;-83
2024/02/11 02:10:49;;;;;;;8.27;4.63;;;11.10;67.50;;;;;;4631427;30;20117;-82
2024/02/11 02:13:15;;;;;;;15.88;5.65;;;11.00;67.30;;;;;;4623586;30;20043;-84
2024/02/11 02:15:41;;;;;;;8.70;4.30;;;11.10;67.50;;;;;;4619440;30;20414;-87
2024/02/11 02:18:08;;;;;;;10.20;5.15;;;11.10;67.50;;;;;;4638703;30;20116;-83
2024/02/11 02:20:40;;;;;;;8.93;4.47;;;11.00;67.30;;;;;;4635980;30;20259;-85
2024/02/11 02:23:09;;;;;;;9.32;4.70;;;11.00;67.30;;;;;;4637932;30;20035;-83
2024/02/11 02:25:38;;;;;;;9.88;4.53;;;11.00;67.30;;;;;;4622886;30;20035;-82
2024/02/11 02:28:05;;;;;;;9.48;5.13;;;11.00;67.30;;;;;;4633076;30;20073;-84
2024/02/11 02:30:33;;;;;;;8.38;4.57;;;11.00;67.30;;;;;;4623184;30;20464;-85
2024/02/11 02:33:00;;;;;;;10.10;4.50;;;11.00;67.40;;;;;;4639853;30;20051;-84
2024/02/11 02:35:28;;;;;;;9.50;4.78;;;11.00;67.40;;;;;;4624818;30;20043;-85
2024/02/11 02:37:55;;;;;;;9.57;4.70;;;11.00;67.40;;;;;;4609333;30;20129;-85
2024/02/11 02:40:26;;;;;;;11.02;4.93;;;10.90;67.20;;;;;;4623976;30;20122;-84
2024/02/11 02:42:53;;;;;;;9.90;4.75;;;10.90;67.30;;;;;;4638653;30;20120;-84
2024/02/11 02:45:19;;;;;;;13.45;5.50;;;10.90;67.30;;;;;;4633031;30;20047;-83
2024/02/11 02:47:46;;;;;;;9.75;4.68;;;10.90;67.30;;;;;;4640711;30;20158;-83
2024/02/11 02:50:15;;;;;;;9.32;4.63;;;10.90;67.30;;;;;;4639551;30;20046;-85
2024/02/11 02:52:46;;;;;;;10.50;5.75;;;10.90;67.30;;;;;;4628763;30;20046;-84
2024/02/11 02:55:13;;;;;;;8.77;4.28;;;10.90;67.30;;;;;;4637816;30;20303;-82
2024/02/11 02:57:39;;;;;;;10.50;4.88;;;10.90;67.30;;;;;;4641840;30;20149;-83
2024/02/11 03:00:06;;;;;;;10.25;4.43;;;10.90;67.40;;;;;;4625494;30;20078;-84
2024/02/11 03:02:34;;;;;;;11.18;4.75;;;10.90;67.40;;;;;;4640694;30;20133;-82
2024/02/11 03:05:02;;;;;;;10.63;5.03;;;10.80;67.20;;;;;;4627922;30;20059;-83
2024/02/11 03:07:28;;;;;;;11.63;5.85;;;10.90;67.30;;;;;;4641885;30;20460;-84
2024/02/11 03:09:54;;;;;;;12.35;4.72;;;10.80;67.20;;;;;;4626270;30;20164;-84
2024/02/11 03:12:26;;;;;;;11.93;4.55;;;10.90;67.40;;;;;;4624416;30;20470;-84
2024/02/11 03:14:52;;;;;;;7.85;4.15;;;10.80;67.20;;;;;;4639602;30;20058;-84
2024/02/11 03:17:19;;;;;;;13.18;4.75;;;10.80;67.20;;;;;;4640123;30;20470;-85
2024/02/11 03:19:45;;;;;;;9.43;4.57;;;10.80;67.20;;;;;;4641278;30;20035;-86
2024/02/11 03:22:14;;;;;;;13.93;4.60;;;10.80;67.20;;;;;;4626011;30;20046;-85
2024/02/11 03:24:40;;;;;;;8.93;4.13;;;10.80;67.20;;;;;;4625936;30;20058;-84
2024/02/11 03:27:07;;;;;;;8.52;3.85;;;10.70;67.10;;;;;;4625749;30;20512;-85
2024/02/11 03:29:33;;;;;;;15.85;5.13;;;10.80;67.30;;;;;;4640724;30;20031;-85
2024/02/11 03:31:59;;;;;;;11.68;5.28;;;10.70;67.10;;;;;;4625247;30;20122;-85
2024/02/11 03:34:28;;;;;;;11.27;5.38;;;10.70;67.10;;;;;;4640092;30;20089;-85
2024/02/11 03:36:54;;;;;;;8.10;4.65;;;10.70;67.10;;;;;;4643204;30;20039;-85
2024/02/11 03:39:20;;;;;;;9.60;4.43;;;10.70;67.70;;;;;;4640582;30;20043;-84
2024/02/11 03:41:46;;;;;;;12.30;4.90;;;10.70;67.10;;;;;;4643428;30;20182;-86
2024/02/11 03:44:13;;;;;;;10.25;4.90;;;10.70;67.10;;;;;;4646203;30;20046;-83
2024/02/11 03:46:39;;;;;;;9.82;4.35;;;10.70;67.10;;;;;;4662022;30;20038;-83
2024/02/11 03:49:05;;;;;;;11.50;4.63;;;10.70;67.10;;;;;;4640131;30;20059;-82
2024/02/11 03:51:32;;;;;;;7.47;4.65;;;10.70;67.10;;;;;;4637458;30;20041;-83
2024/02/11 03:54:01;;;;;;;8.63;4.70;;;10.70;67.10;;;;;;4645711;30;20321;-83
2024/02/11 03:56:29;;;;;;;13.27;4.75;;;10.70;67.10;;;;;;4619879;30;20039;-84
2024/02/11 03:58:55;;;;;;;10.38;4.45;;;10.70;67.10;;;;;;4639804;30;20307;-87
2024/02/11 04:01:27;;;;;;;9.25;4.47;;;10.70;67.10;;;;;;4636611;30;20047;-86
2024/02/11 04:03:53;;;;;;;12.18;4.50;;;10.70;67.00;;;;;;4639203;30;20378;-86
2024/02/11 04:06:20;;;;;;;9.20;4.78;;;10.70;67.00;;;;;;4641317;30;20061;-85
2024/02/11 04:08:49;;;;;;;8.18;4.28;;;10.70;67.10;;;;;;4632019;30;20405;-86
2024/02/11 04:11:20;;;;;;;9.90;5.00;;;10.70;67.00;;;;;;4616196;30;20047;-85
2024/02/11 04:13:46;;;;;;;9.85;5.38;;;10.70;67.00;;;;;;4639765;30;20694;-86
2024/02/11 04:16:15;;;;;;;9.13;4.65;;;10.70;67.10;;;;;;4632696;30;20132;-85
2024/02/11 04:18:42;;;;;;;9.18;4.25;;;10.70;67.10;;;;;;4637643;30;20141;-85
2024/02/11 04:21:10;;;;;;;10.63;4.28;;;10.70;67.00;;;;;;4641511;30;20039;-86
2024/02/11 04:23:38;;;;;;;8.18;4.57;;;10.70;67.00;;;;;;4640107;30;20085;-85
2024/02/11 04:26:08;;;;;;;8.52;4.22;;;10.70;67.10;;;;;;4638196;30;20057;-84
2024/02/11 04:28:38;;;;;;;9.50;4.28;;;10.70;67.00;;;;;;4639402;30;20039;-85
2024/02/11 04:31:04;;;;;;;8.63;4.30;;;10.70;67.10;;;;;;4623706;30;20130;-85
2024/02/11 04:33:30;;;;;;;11.20;5.38;;;10.70;67.10;;;;;;4623970;30;20127;-85
2024/02/11 04:36:00;;;;;;;9.75;4.55;;;10.70;67.10;;;;;;4641082;30;20074;-86
2024/02/11 04:38:27;;;;;;;11.05;5.03;;;10.70;67.10;;;;;;4618970;30;20401;-85
2024/02/11 04:40:55;;;;;;;10.02;4.68;;;10.70;67.10;;;;;;4630187;30;20039;-85
2024/02/11 04:43:20;;;;;;;11.63;4.70;;;10.70;67.10;;;;;;4634286;30;20035;-83
2024/02/11 04:45:49;;;;;;;7.57;4.25;;;10.70;67.10;;;;;;4628735;30;20087;-83
2024/02/11 04:48:19;;;;;;;8.25;4.30;;;10.70;67.00;;;;;;4638469;30;20058;-83
2024/02/11 04:50:46;;;;;;;14.98;4.80;;;10.70;67.10;;;;;;4641543;30;20075;-84
2024/02/11 04:53:12;;;;;;;10.30;4.82;;;10.70;67.00;;;;;;4638339;30;20069;-84
2024/02/11 04:55:43;;;;;;;6.97;4.45;;;10.70;67.10;;;;;;4636734;30;20047;-84
2024/02/11 04:58:19;;;;;;;8.32;4.68;;;10.70;67.10;;;;;;4640509;30;20039;-84
2024/02/11 05:00:50;;;;;;;8.95;4.90;;;10.70;67.00;;;;;;4624961;30;20065;-84
2024/02/11 05:03:17;;;;;;;11.57;4.65;;;10.70;67.10;;;;;;4631173;30;20072;-84
2024/02/11 05:05:44;;;;;;;9.68;4.55;;;10.70;67.10;;;;;;4632428;30;20039;-84
2024/02/11 05:08:16;;;;;;;8.93;4.43;;;10.70;67.10;;;;;;4630885;30;20575;-83
2024/02/11 05:10:44;;;;;;;12.02;4.25;;;10.70;67.10;;;;;;4627978;30;20046;-81
2024/02/11 05:13:11;;;;;;;9.85;3.92;;;10.70;67.10;;;;;;4625817;30;20408;-81
2024/02/11 05:15:40;;;;;;;9.70;4.50;;;10.70;67.60;;;;;;4619949;30;20057;-82
2024/02/11 05:18:18;;;;;;;10.52;4.70;;;10.70;67.10;;;;;;4626818;30;20049;-82
2024/02/11 05:20:45;;;;;;;9.43;5.10;;;10.70;67.10;;;;;;4639562;30;20571;-82
2024/02/11 05:23:11;;;;;;;8.27;4.57;;;10.70;67.10;;;;;;4623900;30;20049;-81
2024/02/11 05:25:43;;;;;;;8.95;4.80;;;10.70;67.10;;;;;;4642640;30;20077;-83
2024/02/11 05:28:19;;;;;;;8.93;3.63;;;10.60;66.90;;;;;;4644333;30;20058;-82
2024/02/11 05:30:46;;;;;;;9.10;4.50;;;10.60;66.90;;;;;;4627874;30;20082;-83
2024/02/11 05:33:13;;;;;;;9.70;4.18;;;10.70;67.10;;;;;;4644541;30;20039;-82
2024/02/11 05:35:39;;;;;;;11.45;5.35;;;10.70;67.10;;;;;;4644895;30;20039;-82
2024/02/11 05:38:08;;;;;;;10.57;5.13;;;10.70;67.20;;;;;;4639583;30;20468;-85
2024/02/11 05:40:41;;;;;;;8.82;4.53;;;10.70;67.20;;;;;;4642009;30;20038;-84
2024/02/11 05:43:08;;;;;;;7.18;4.28;;;10.70;67.20;;;;;;4641032;30;20488;-84
2024/02/11 05:45:37;;;;;;;9.38;4.85;;;10.70;67.10;;;;;;4626579;30;20537;-85
2024/02/11 05:48:03;;;;;;;10.35;5.72;;;10.60;66.90;;;;;;4637545;30;20558;-85
2024/02/11 05:50:29;;;;;;;10.18;5.13;;;10.70;67.10;;;;;;4624337;30;20114;-85
2024/02/11 05:52:55;;;;;;;12.27;5.22;;;10.70;67.10;;;;;;4623663;30;20566;-84
2024/02/11 05:55:22;;;;;;;10.00;5.40;;;10.70;67.10;;;;;;4631150;30;20051;-84
2024/02/11 05:57:49;;;;;;;8.32;5.50;;;10.60;66.90;;;;;;4636092;30;20070;-85
2024/02/11 06:00:20;;;;;;;9.13;5.15;;;10.60;66.90;;;;;;4638155;30;20039;-83
2024/02/11 06:02:48;;;;;;;8.13;4.60;;;10.60;66.90;;;;;;4622141;30;20042;-83
2024/02/11 06:05:17;;;;;;;10.85;6.00;;;10.60;67.00;;;;;;4609361;30;20126;-85
2024/02/11 06:07:51;;;;;;;8.07;4.70;;;10.60;67.00;;;;;;4639616;30;20049;-83
2024/02/11 06:10:23;;;;;;;7.85;4.82;;;10.60;67.00;;;;;;4642842;30;20093;-84
2024/02/11 06:12:50;;;;;;;9.33;6.57;;;10.60;67.00;;;;;;4628796;30;20552;-83
2024/02/11 06:15:24;;;;;;;9.00;5.57;;;10.60;67.00;;;;;;4637143;30;20125;-83
2024/02/11 06:17:52;;;;;;;9.75;5.00;;;10.60;67.00;;;;;;4644347;30;20050;-83
2024/02/11 06:20:19;;;;;;;9.82;5.32;;;10.60;67.00;;;;;;4625556;30;20075;-81
2024/02/11 06:22:46;;;;;;;10.73;5.43;;;10.60;67.00;;;;;;4620175;30;20050;-84
2024/02/11 06:25:14;;;;;;;9.07;5.32;;;10.60;67.50;;;;;;4637117;30;20036;-82
2024/02/11 06:27:40;;;;;;;11.48;6.30;;;10.60;67.00;;;;;;4637942;30;20529;-83
2024/02/11 06:30:17;;;;;;;12.95;6.38;;;10.60;67.00;;;;;;4637039;30;20114;-81
2024/02/11 06:32:50;;;;;;;11.52;6.40;;;10.70;67.20;;;;;;4638263;30;20055;-82
2024/02/11 06:35:18;;;;;;;9.52;5.25;;;10.70;67.20;;;;;;4640149;30;20035;-83
2024/02/11 06:37:48;;;;;;;9.80;6.10;;;10.70;67.10;;;;;;4640087;30;20137;-83
2024/02/11 06:40:22;;;;;;;11.38;6.15;;;10.70;67.10;;;;;;4622537;30;20390;-85
2024/02/11 06:42:48;;;;;;;11.80;5.60;;;10.70;67.20;;;;;;4621795;30;20047;-84
2024/02/11 06:45:14;;;;;;;10.73;5.63;;;10.60;66.90;;;;;;4638924;30;20043;-84
2024/02/11 06:47:41;;;;;;;11.40;5.10;;;10.60;67.00;;;;;;4625496;30;20563;-83
2024/02/11 06:50:09;;;;;;;10.82;5.88;;;10.60;67.00;;;;;;4618062;30;20092;-84
2024/02/11 06:52:35;;;;;;;12.02;6.10;;;10.60;67.00;;;;;;4622666;30;20091;-83
2024/02/11 06:55:03;;;;;;;10.43;5.55;;;10.60;67.00;;;;;;4636339;30;20385;-85
2024/02/11 06:57:34;;;;;;;7.75;5.25;;;10.60;67.00;;;;;;4635235;30;20086;-83
2024/02/11 07:00:00;;;;;;;8.30;6.05;;;10.60;67.10;;;;;;4623159;30;20476;-83
2024/02/11 07:02:26;;;;;;;10.23;5.68;;;10.60;67.10;;;;;;4638393;30;20219;-83
2024/02/11 07:04:54;;;;;;;9.60;5.68;;;10.60;67.10;;;;;;4635499;30;20492;-81
2024/02/11 07:07:22;;;;;;;8.23;5.15;;;10.60;67.10;;;;;;4638633;30;20188;-83
2024/02/11 07:09:48;;;;;;;11.85;6.28;;;10.60;67.10;;;;;;4639483;30;20130;-81
2024/02/11 07:12:16;;;;;;;10.88;5.95;;;10.60;67.00;;;;;;4622790;30;20102;-81
2024/02/11 07:14:45;;;;;;;7.18;4.95;;;10.60;67.00;;;;;;4637550;30;20091;-80
2024/02/11 07:17:14;;;;;;;10.65;5.78;;;10.60;67.00;;;;;;4622811;30;20077;-80
2024/02/11 07:19:41;;;;;;;9.82;5.68;;;10.60;67.00;;;;;;4636179;30;20476;-80
2024/02/11 07:22:08;;;;;;;9.95;5.43;;;10.60;67.00;;;;;;4623506;30;20073;-81
2024/02/11 07:24:43;;;;;;;9.25;5.55;;;10.60;67.00;;;;;;4621883;30;20099;-85
2024/02/11 07:27:14;;;;;;;9.85;5.50;;;10.60;67.00;;;;;;4637865;30;20150;-86
2024/02/11 07:29:44;;;;;;;11.43;5.43;;;10.60;67.00;;;;;;4621730;30;20156;-81
2024/02/11 07:32:11;;;;;;;10.52;6.25;;;10.70;67.10;;;;;;4636456;30;20908;-83
2024/02/11 07:34:39;;;;;;;8.75;5.70;;;10.60;66.90;;;;;;4639069;30;20027;-82
2024/02/11 07:37:05;;;;;;;10.30;5.40;;;10.60;67.00;;;;;;4639570;30;20114;-82
2024/02/11 07:39:31;;;;;;;10.40;6.93;;;10.60;67.00;;;;;;4635390;30;20539;-85
2024/02/11 07:41:58;;;;;;;10.95;5.90;;;10.60;67.00;;;;;;4621468;30;20118;-81
2024/02/11 07:44:24;;;;;;;8.77;5.38;;;10.60;67.00;;;;;;4623272;30;20043;-81
2024/02/11 07:46:53;;;;;;;8.88;4.60;;;10.60;67.00;;;;;;4621865;30;20527;-83
2024/02/11 07:49:20;;;;;;;8.20;4.95;;;10.60;67.00;;;;;;4633956;30;20035;-81
2024/02/11 07:51:48;;;;;;;6.30;4.65;;;10.60;67.20;;;;;;4636378;30;20425;-81
2024/02/11 07:54:13;;;;;;;11.07;5.35;;;10.60;67.70;;;;;;4636251;30;20035;-79
2024/02/11 07:56:40;;;;;;;8.90;5.28;;;10.70;68.10;;;;;;4620201;30;20451;-78
2024/02/11 07:59:06;;;;;;;8.40;4.70;;;10.70;68.10;;;;;;4632178;30;20031;-78
2024/02/11 08:01:35;;;;;;;7.93;4.57;;;10.70;68.10;;;;;;4618566;30;20042;-77
2024/02/11 08:04:01;;;;;;;9.88;4.78;;;10.70;68.20;;;;;;4616427;30;20301;-79
2024/02/11 08:06:27;;;;;;;8.57;4.72;;;10.80;68.50;;;;;;4634175;30;20117;-79
2024/02/11 08:08:55;;;;;;;7.45;4.63;;;10.80;68.50;;;;;;4626253;30;20047;-78
2024/02/11 08:11:22;;;;;;;11.13;6.10;;;10.80;68.50;;;;;;4616701;30;20046;-78
2024/02/11 08:13:47;;;;;;;9.98;5.20;;;10.80;68.50;;;;;;4632286;30;20121;-79
2024/02/11 08:16:13;;;;;;;10.75;5.45;;;10.80;68.50;;;;;;4614948;30;20039;-79
2024/02/11 08:18:41;;;;;;;5.35;4.20;;;10.80;68.50;;;;;;4619473;30;20063;-79
2024/02/11 08:21:09;;;;;;;9.23;5.28;;;10.80;68.50;;;;;;4634228;30;20070;-78
2024/02/11 08:23:35;;;;;;;5.47;4.68;;;10.80;68.60;;;;;;4620135;30;20046;-80
2024/02/11 08:26:01;;;;;;;10.68;5.30;;;10.80;68.50;;;;;;4618725;30;20358;-80
2024/02/11 08:28:27;;;;;;;9.77;5.25;;;10.80;68.60;;;;;;4622518;30;20488;-79
2024/02/11 08:30:54;;;;;;;6.68;5.10;;;10.80;68.50;;;;;;4618124;30;20694;-79
2024/02/11 08:33:20;;;;;;;7.22;4.45;;;10.80;68.50;;;;;;4633671;30;20295;-79
2024/02/11 08:35:47;;;;;;;8.23;4.75;;;10.80;68.40;;;;;;4619878;30;20113;-78
2024/02/11 08:38:14;;;;;;;8.77;5.32;;;10.90;69.00;;;;;;4632414;30;20087;-80
2024/02/11 08:40:40;;;;;;;9.27;5.18;;;10.90;68.50;;;;;;4621716;30;20035;-80
2024/02/11 08:43:06;;;;;;;7.65;5.53;;;10.90;68.50;;;;;;4636435;30;20106;-80
2024/02/11 08:45:32;;;;;;;5.25;4.20;;;10.90;68.40;;;;;;4625657;30;20124;-79
2024/02/11 08:47:58;;;;;;;7.25;4.80;;;10.90;68.40;;;;;;4616791;30;20047;-79
2024/02/11 08:50:26;;;;;;;8.60;5.15;;;10.90;68.30;;;;;;4626020;30;20639;-78
2024/02/11 08:52:53;;;;;;;7.57;5.03;;;11.00;68.50;;;;;;4624263;30;20050;-81
2024/02/11 08:55:19;;;;;;;9.73;5.15;;;11.00;68.40;;;;;;4621759;30;20089;-80
2024/02/11 08:57:47;;;;;;;5.63;4.60;;;11.10;68.40;;;;;;4623060;30;20038;-79
2024/02/11 09:00:18;;;;;;;7.28;4.75;;;11.20;68.50;;;;;;4623978;30;20039;-80
2024/02/11 09:02:45;;;;;;;10.82;5.25;;;11.20;68.40;;;;;;4640548;30;20059;-81
2024/02/11 09:05:11;;;;;;;6.72;4.50;;;11.20;68.30;;;;;;4637291;30;20065;-78
2024/02/11 09:07:43;;;;;;;6.68;4.22;;;11.30;68.30;;;;;;4633817;30;20055;-80
2024/02/11 09:10:09;;;;;;;6.68;5.55;;;11.40;68.50;;;;;;4621576;30;20388;-81
2024/02/11 09:12:36;;;;;;;6.50;4.65;;;11.40;68.40;;;;;;4619097;30;20106;-80
2024/02/11 09:15:05;;;;;;;6.50;4.22;;;11.40;68.30;;;;;;4634149;30;20043;-78
2024/02/11 09:17:32;;;;;;;9.63;4.68;;;11.50;68.30;;;;;;4634974;30;20035;-79
2024/02/11 09:19:59;;;;;;;7.95;5.35;;;11.50;68.30;;;;;;4635490;30;20491;-80
2024/02/11 09:22:26;;;;;;;6.43;4.00;;;11.60;68.30;;;;;;4625434;30;20472;-79
2024/02/11 09:24:52;;;;;;;5.47;4.35;;;11.60;68.20;;;;;;4624029;30;20043;-77
2024/02/11 09:27:18;;;;;;;5.43;3.80;;;11.70;68.30;;;;;;4630189;30;20082;-80
2024/02/11 09:29:47;;;;;;;6.72;3.85;;;11.70;68.20;;;;;;4657585;30;20166;-80
2024/02/11 09:32:14;;;;;;;6.00;3.30;;;11.80;68.50;;;;;;4657965;30;20108;-81
2024/02/11 09:34:40;;;;;;;8.63;3.70;;;11.80;68.50;;;;;;4651550;30;20433;-83
2024/02/11 09:37:06;;;;;;;4.55;3.10;;;11.90;68.60;;;;;;4642053;30;20122;-81
2024/02/11 09:39:32;;;;;;;4.20;2.47;;;12.00;68.80;;;;;;4662896;30;20102;-82
2024/02/11 09:41:58;;;;;;;8.55;4.10;;;12.00;68.70;;;;;;4652577;30;20234;-82
2024/02/11 09:44:30;;;;;;;42.67;27.98;;;12.10;68.90;;;;;;4641054;30;20066;-79
2024/02/11 09:46:58;;;;;;;26.02;18.67;;;12.10;69.00;;;;;;4641053;30;20059;-81
2024/02/11 09:49:27;;;;;;;28.42;19.98;;;12.10;69.10;;;;;;4638217;30;20228;-84
2024/02/11 09:51:55;;;;;;;29.95;21.63;;;12.10;69.30;;;;;;4637974;30;20031;-81
2024/02/11 09:54:23;;;;;;;40.50;29.92;;;12.20;69.70;;;;;;4622893;30;20528;-83
2024/02/11 09:56:52;;;;;;;60.60;54.28;;;12.20;69.90;;;;;;4633213;30;20656;-81
2024/02/11 09:59:18;;;;;;;73.25;65.55;;;12.20;70.10;;;;;;4645706;30;20047;-85
2024/02/11 10:01:45;;;;;;;65.65;57.53;;;12.20;70.30;;;;;;4623726;30;20540;-84
2024/02/11 10:04:16;;;;;;;70.15;60.67;;;12.20;70.40;;;;;;4624277;30;20035;-84
2024/02/11 10:06:43;;;;;;;63.22;55.47;;;12.30;70.60;;;;;;4619832;30;20307;-83
2024/02/11 10:09:15;;;;;;;62.50;55.40;;;12.40;70.70;;;;;;4637077;30;20121;-82
2024/02/11 10:11:44;;;;;;;61.70;54.92;;;12.50;70.70;;;;;;4621993;30;20035;-84
2024/02/11 10:14:13;;;;;;;62.70;55.88;;;12.60;70.60;;;;;;4620720;30;20043;-83
2024/02/11 10:16:40;;;;;;;65.50;55.05;;;12.70;70.50;;;;;;4634185;30;20099;-84
2024/02/11 10:19:09;;;;;;;63.00;51.47;;;12.90;70.50;;;;;;4621577;30;20109;-83
2024/02/11 10:21:36;;;;;;;51.28;45.42;;;12.90;70.20;;;;;;4637486;30;20134;-83
2024/02/11 10:24:05;;;;;;;48.35;41.35;;;13.00;70.20;;;;;;4620282;30;20142;-83
2024/02/11 10:26:35;;;;;;;49.70;39.80;;;13.10;70.10;;;;;;4636406;30;20074;-86
2024/02/11 10:29:04;;;;;;;45.70;36.90;;;13.10;70.00;;;;;;4631635;30;20337;-84
2024/02/11 10:31:30;;;;;;;40.45;35.80;;;13.20;70.00;;;;;;4635041;30;20149;-84
2024/02/11 10:33:57;;;;;;;43.55;34.63;;;13.20;69.80;;;;;;4636183;30;20608;-85
2024/02/11 10:36:24;;;;;;;41.97;34.75;;;13.20;69.60;;;;;;4637092;30;20062;-83
2024/02/11 10:38:54;;;;;;;35.55;30.48;;;13.30;69.60;;;;;;4635193;30;20055;-84
2024/02/11 10:41:32;;;;;;;32.58;26.90;;;13.30;69.40;;;;;;4621477;30;20503;-83
2024/02/11 10:44:17;;;;;;;33.25;26.08;;;13.30;69.20;;;;;;4646540;30;20271;-81
2024/02/11 10:46:44;;;;;;;29.10;21.23;;;13.40;69.30;;;;;;4642517;30;20602;-82
2024/02/11 10:49:12;;;;;;;31.30;23.73;;;13.40;69.20;;;;;;4636106;30;20384;-83
2024/02/11 10:51:42;;;;;;;30.52;22.98;;;13.40;69.00;;;;;;4619194;30;20039;-83
2024/02/11 10:54:14;;;;;;;;;;;13.40;68.90;;;;;;4620090;30;20109;-86
2024/02/11 10:57:01;;;;;;;26.85;20.95;;;13.40;68.80;;;;;;4627408;30;19921;-83
2024/02/11 10:59:37;;;;;;;24.60;17.83;;;13.50;68.90;;;;;;4618027;30;20119;-82
2024/02/11 11:02:04;;;;;;;24.98;18.60;;;13.50;68.70;;;;;;4622098;30;20071;-82
2024/02/11 11:04:32;;;;;;;30.42;20.63;;;13.60;68.70;;;;;;4636336;30;20588;-84
2024/02/11 11:06:58;;;;;;;20.95;16.50;;;13.60;68.60;;;;;;4634566;30;20137;-82
2024/02/11 11:09:25;;;;;;;21.35;16.17;;;13.60;68.40;;;;;;4635616;30;20399;-82
2024/02/11 11:11:51;;;;;;;19.83;15.10;;;13.60;68.30;;;;;;4620352;30;20548;-82
2024/02/11 11:14:19;;;;;;;17.77;14.48;;;13.70;68.40;;;;;;4634541;30;20411;-80
2024/02/11 11:16:46;;;;;;;19.08;14.98;;;13.70;68.30;;;;;;4634635;30;20038;-83
2024/02/11 11:19:14;;;;;;;20.13;13.70;;;13.70;68.10;;;;;;4614636;30;20039;-83
2024/02/11 11:21:56;;;;;;;19.08;13.18;;;13.90;68.20;;;;;;4620760;30;20047;-82
2024/02/11 11:24:22;;;;;;;17.95;12.80;;;13.90;68.00;;;;;;4618932;30;20189;-90
2024/02/11 11:26:56;;;;;;;19.05;14.65;;;14.00;67.90;;;;;;4620332;30;20187;-80
2024/02/11 11:29:27;;;;;;;19.77;16.85;;;14.10;67.90;;;;;;4632623;30;20724;-80
2024/02/11 11:31:59;;;;;;;21.23;15.82;;;14.20;68.00;;;;;;4619394;30;20161;-80
2024/02/11 11:34:30;;;;;;;20.60;16.17;;;14.40;68.30;;;;;;4619576;30;20379;-80
2024/02/11 11:37:07;;;;;;;20.83;15.55;;;14.60;68.30;;;;;;4634317;30;20043;-83
2024/02/11 11:39:34;;;;;;;17.40;14.23;;;14.70;68.20;;;;;;4641746;30;20045;-81
2024/02/11 11:41:59;;;;;;;15.88;11.20;;;14.90;68.20;;;;;;4649829;30;20118;-81
2024/02/11 11:44:25;;;;;;;30.48;18.77;;;15.00;68.00;;;;;;4634998;30;20073;-82
2024/02/11 11:46:51;;;;;;;25.55;12.95;;;15.10;67.80;;;;;;4635076;30;20062;-81
2024/02/11 11:49:18;;;;;;;21.02;10.85;;;15.20;67.60;;;;;;4635738;30;20039;-82
2024/02/11 11:51:44;;;;;;;21.42;13.18;;;15.20;67.40;;;;;;4653885;30;20403;-82
2024/02/11 11:54:10;;;;;;;23.83;12.07;;;15.20;67.20;;;;;;4633575;30;20154;-80
2024/02/11 11:56:37;;;;;;;21.63;10.48;;;15.20;67.20;;;;;;4649898;30;20062;-81
2024/02/11 11:59:06;;;;;;;22.23;12.27;;;15.10;67.00;;;;;;4647814;30;20458;-82
2024/02/11 12:01:33;;;;;;;17.05;9.88;;;15.10;67.00;;;;;;4645826;30;20890;-82
2024/02/11 12:03:59;;;;;;;21.17;10.40;;;15.10;67.00;;;;;;4645527;30;20043;-81
2024/02/11 12:06:26;;;;;;;18.35;11.13;;;15.10;66.90;;;;;;4648498;30;20150;-82
2024/02/11 12:08:52;;;;;;;23.63;10.55;;;15.20;66.90;;;;;;4644978;30;20035;-82
2024/02/11 12:11:30;;;;;;;12.52;8.15;;;15.30;66.80;;;;;;4636624;30;20106;-82
2024/02/11 12:13:56;;;;;;;12.40;6.75;;;15.40;66.70;;;;;;4632074;30;20606;-80
2024/02/11 12:16:23;;;;;;;13.18;7.22;;;15.50;66.60;;;;;;4643726;30;20043;-79
2024/02/11 12:18:50;;;;;;;11.25;6.80;;;15.50;66.20;;;;;;4637024;30;20070;-84
2024/02/11 12:21:19;;;;;;;20.20;11.55;;;15.60;66.10;;;;;;4633656;30;20362;-82
2024/02/11 12:23:47;;;;;;;23.85;12.82;;;15.60;65.90;;;;;;4625737;30;20070;-82
2024/02/11 12:26:19;;;;;;;18.88;12.57;;;15.60;65.70;;;;;;4640177;30;20066;-82
2024/02/11 12:28:52;;;;;;;38.10;20.35;;;15.70;65.60;;;;;;4645057;30;20034;-79
2024/02/11 12:31:20;;;;;;;35.97;23.50;;;15.70;65.50;;;;;;4635104;30;20122;-81
2024/02/11 12:33:48;;;;;;;41.08;25.92;;;15.80;65.60;;;;;;4638421;30;20093;-81
2024/02/11 12:36:20;;;;;;;35.90;19.17;;;15.90;65.60;;;;;;4632210;30;20041;-80
2024/02/11 12:38:51;;;;;;;29.88;19.98;;;16.00;65.60;;;;;;4630043;30;20305;-81
2024/02/11 12:41:19;;;;;;;29.85;20.17;;;16.10;65.50;;;;;;4632648;30;20319;-86
2024/02/11 12:43:47;;;;;;;29.65;18.35;;;16.20;65.40;;;;;;4638163;30;20480;-81